createdAt,value
2023-02-05T00:08:21.759Z,15.40
2023-02-05T00:14:41.352Z,20.70
2023-02-05T00:20:36.711Z,16.90
2023-02-05T00:42:10.357Z,11.70
2023-02-05T00:47:39.705Z,8.50
2023-02-05T01:00:07.554Z,6.70
2023-02-05T01:19:40.981Z,3.40
2023-02-05T01:26:00.122Z,2.90
2023-02-05T01:31:03.728Z,3.50
2023-02-05T01:36:08.079Z,1.90
2023-02-05T01:41:14.362Z,2.20
2023-02-05T01:54:29.214Z,5.40
2023-02-05T01:59:37.726Z,4.00
2023-02-05T02:15:21.565Z,3.00
2023-02-05T02:28:19.925Z,1.60
2023-02-05T02:34:24.109Z,2.80
2023-02-05T02:55:45.637Z,2.90
2023-02-05T03:15:28.570Z,3.10
2023-02-05T03:21:55.045Z,2.90
2023-02-05T03:42:20.948Z,3.50
2023-02-05T03:48:41.518Z,3.20
2023-02-05T03:54:10.627Z,6.10
2023-02-05T04:06:14.434Z,3.40
2023-02-05T04:11:18.363Z,2.40
2023-02-05T04:24:52.413Z,5.20
2023-02-05T04:37:23.019Z,5.70
2023-02-05T04:44:05.344Z,4.70
2023-02-05T04:56:36.320Z,4.00
2023-02-05T05:20:50.473Z,61.20
2023-02-05T05:33:22.609Z,19.50
2023-02-05T06:04:44.798Z,4.40
2023-02-05T06:20:06.690Z,7.00
2023-02-05T06:32:32.111Z,9.50
2023-02-05T06:37:47.116Z,14.60
2023-02-05T06:58:24.488Z,28.20
2023-02-05T07:03:28.896Z,25.00
2023-02-05T07:09:54.272Z,32.10
2023-02-05T07:14:58.162Z,32.50
2023-02-05T07:20:02.170Z,33.80
2023-02-05T07:25:07.400Z,41.90
2023-02-05T07:30:12.599Z,35.60
2023-02-05T07:35:16.441Z,57.90
2023-02-05T07:40:45.671Z,86.50
2023-02-05T07:46:00.494Z,74.30
2023-02-05T07:51:05.651Z,52.10
2023-02-05T07:56:09.813Z,67.10
2023-02-05T08:02:03.665Z,57.80
2023-02-05T08:07:07.696Z,18.30
2023-02-05T08:12:11.316Z,9.60
2023-02-05T08:24:38.776Z,43.90
2023-02-05T08:37:28.159Z,8.30
2023-02-05T08:42:31.896Z,9.30
2023-02-05T08:52:37.912Z,11.40
2023-02-05T08:57:42.041Z,17.00
2023-02-05T09:03:11.138Z,18.10
2023-02-05T09:08:14.937Z,18.60
2023-02-05T09:13:19.149Z,32.10
2023-02-05T09:28:43.267Z,17.70
2023-02-05T09:33:47.725Z,13.90
2023-02-05T09:39:18.522Z,11.20
2023-02-05T09:52:03.137Z,12.20
2023-02-05T09:57:15.529Z,19.60
2023-02-05T10:03:10.832Z,26.60
2023-02-05T10:08:36.131Z,31.80
2023-02-05T10:13:45.235Z,21.00
2023-02-05T10:19:22.606Z,19.10
2023-02-05T10:24:48.126Z,16.00
2023-02-05T10:30:11.609Z,10.00
2023-02-05T10:35:44.895Z,14.40
2023-02-05T10:40:51.718Z,16.30
2023-02-05T10:45:58.245Z,10.40
2023-02-05T10:51:08.860Z,12.50
2023-02-05T10:56:19.865Z,12.20
2023-02-05T11:01:32.451Z,14.40
2023-02-05T11:21:02.353Z,45.20
2023-02-05T11:26:35.118Z,24.00
2023-02-05T11:31:39.056Z,39.30
2023-02-05T11:37:34.218Z,33.90
2023-02-05T11:42:38.620Z,10.80
2023-02-05T11:47:43.003Z,5.50
2023-02-05T11:52:49.620Z,9.20
2023-02-05T11:58:06.837Z,10.70
2023-02-05T12:03:19.593Z,15.10
2023-02-05T12:08:52.435Z,20.30
2023-02-05T12:14:12.920Z,23.70
2023-02-05T12:19:24.350Z,44.40
2023-02-05T12:33:40.140Z,16.60
2023-02-05T12:39:03.956Z,40.10
2023-02-05T12:44:26.666Z,53.40
2023-02-05T12:58:37.705Z,20.30
2023-02-05T13:03:54.862Z,27.80
2023-02-05T13:09:02.926Z,19.70
2023-02-05T13:23:02.613Z,32.70
2023-02-05T13:28:43.041Z,27.90
2023-02-05T13:34:17.394Z,23.60
2023-02-05T13:40:02.240Z,18.70
2023-02-05T13:45:24.477Z,28.60
2023-02-05T13:51:18.916Z,51.70
2023-02-05T13:56:59.724Z,16.60
2023-02-05T14:02:20.005Z,11.00
2023-02-05T14:22:32.392Z,13.00
2023-02-05T14:28:33.305Z,4.00
2023-02-05T14:40:27.257Z,7.30
2023-02-05T14:50:38.256Z,24.40
2023-02-05T14:55:44.684Z,40.90
2023-02-05T15:00:48.476Z,49.30
2023-02-05T15:14:35.879Z,28.00
2023-02-05T15:28:45.885Z,42.20
2023-02-05T15:34:28.347Z,32.30
2023-02-05T15:40:56.596Z,21.90
2023-02-05T15:46:10.493Z,18.20
2023-02-05T15:51:32.474Z,33.80
2023-02-05T15:56:56.473Z,24.10
2023-02-05T16:02:07.465Z,52.40
2023-02-05T16:07:43.371Z,58.30
2023-02-05T16:13:05.480Z,68.20
2023-02-05T16:32:43.010Z,27.80
2023-02-05T16:46:09.816Z,20.40
2023-02-05T16:51:47.922Z,39.80
2023-02-05T16:57:15.760Z,39.30
2023-02-05T17:18:00.504Z,29.50
2023-02-05T17:30:30.878Z,22.90
2023-02-05T17:51:06.140Z,43.00
2023-02-05T17:56:17.355Z,87.60
2023-02-05T18:09:30.922Z,104.40
2023-02-05T18:14:34.867Z,129.70
2023-02-05T18:24:06.614Z,50.70
2023-02-05T18:29:10.242Z,51.00
2023-02-05T18:34:33.055Z,51.90
2023-02-05T18:39:37.017Z,87.30
2023-02-05T18:44:41.027Z,67.50
2023-02-05T18:49:44.952Z,82.10
2023-02-05T18:54:48.855Z,77.60
2023-02-05T18:59:54.153Z,68.90
2023-02-05T19:04:58.070Z,41.80
2023-02-05T19:18:39.192Z,51.80
2023-02-05T19:23:52.035Z,52.50
2023-02-05T19:36:26.277Z,61.50
2023-02-05T19:49:11.817Z,38.90
2023-02-05T19:54:16.972Z,31.50
2023-02-05T19:59:21.583Z,49.50
2023-02-05T20:05:16.433Z,55.50
2023-02-05T20:10:58.218Z,54.20
2023-02-05T20:16:16.286Z,26.40
2023-02-05T20:21:21.335Z,16.20
2023-02-05T20:27:17.447Z,15.50
2023-02-05T20:39:31.234Z,35.40
2023-02-05T20:44:36.577Z,49.60
2023-02-05T20:50:18.427Z,52.50
2023-02-05T20:55:22.337Z,61.40
2023-02-05T21:00:44.953Z,89.80
2023-02-05T21:05:48.708Z,58.80
2023-02-05T21:10:52.465Z,40.10
2023-02-05T21:15:59.976Z,29.10
2023-02-05T21:21:14.521Z,66.50
2023-02-05T21:26:22.654Z,67.60
2023-02-05T21:45:42.658Z,28.20
2023-02-05T21:51:36.732Z,25.50
2023-02-05T21:56:44.375Z,72.90
2023-02-05T22:01:48.404Z,57.60
2023-02-05T22:06:52.122Z,56.50
2023-02-05T22:11:56.790Z,107.30
2023-02-05T22:17:01.205Z,40.90
2023-02-05T22:22:33.600Z,30.80
2023-02-05T22:27:37.526Z,27.60
2023-02-05T22:32:41.064Z,97.00
2023-02-05T22:37:44.933Z,41.40
2023-02-05T22:49:52.320Z,27.70
2023-02-05T22:54:56.043Z,19.90
2023-02-05T23:00:00.032Z,22.30
2023-02-05T23:05:23.099Z,22.30
2023-02-05T23:10:27.184Z,22.30
2023-02-05T23:15:31.656Z,19.10
2023-02-05T23:20:35.511Z,18.90
2023-02-05T23:25:58.068Z,36.50
2023-02-05T23:38:25.444Z,33.60
2023-02-05T23:43:29.218Z,29.60
2023-02-05T23:52:58.620Z,14.20
